sensor_id;sensor_type;location;lat;lon;timestamp;temperature;humidity
40255;DHT22;25973;52.368;4.940;2022-10-26T00:02:20;12.80;99.90
40255;DHT22;25973;52.368;4.940;2022-10-26T00:04:45;12.80;99.90
40255;DHT22;25973;52.368;4.940;2022-10-26T00:07:11;12.80;99.90
40255;DHT22;25973;52.368;4.940;2022-10-26T00:09:36;12.90;99.90
40255;DHT22;25973;52.368;4.940;2022-10-26T00:12:02;12.80;99.90
40255;DHT22;25973;52.368;4.940;2022-10-26T00:14:28;12.80;99.90
40255;DHT22;25973;52.368;4.940;2022-10-26T00:16:54;12.80;99.90
40255;DHT22;25973;52.368;4.940;2022-10-26T00:19:20;12.80;99.90
40255;DHT22;25973;52.368;4.940;2022-10-26T00:21:45;12.80;99.90
40255;DHT22;25973;52.368;4.940;2022-10-26T00:24:12;12.80;99.90
40255;DHT22;25973;52.368;4.940;2022-10-26T00:26:39;12.80;99.90
40255;DHT22;25973;52.368;4.940;2022-10-26T00:29:06;12.90;99.90
40255;DHT22;25973;52.368;4.940;2022-10-26T00:31:31;12.90;99.90
40255;DHT22;25973;52.368;4.940;2022-10-26T00:33:57;12.90;99.90
40255;DHT22;25973;52.368;4.940;2022-10-26T00:36:24;12.90;99.90
40255;DHT22;25973;52.368;4.940;2022-10-26T00:38:52;12.90;99.90
40255;DHT22;25973;52.368;4.940;2022-10-26T00:41:20;12.90;99.90
40255;DHT22;25973;52.368;4.940;2022-10-26T00:43:46;12.90;99.90
40255;DHT22;25973;52.368;4.940;2022-10-26T00:46:21;12.90;99.90
40255;DHT22;25973;52.368;4.940;2022-10-26T00:48:52;12.90;99.90
40255;DHT22;25973;52.368;4.940;2022-10-26T00:51:33;12.90;99.90
40255;DHT22;25973;52.368;4.940;2022-10-26T00:54:10;12.90;99.90
40255;DHT22;25973;52.368;4.940;2022-10-26T00:56:36;12.80;99.90
40255;DHT22;25973;52.368;4.940;2022-10-26T00:59:05;12.80;99.90
40255;DHT22;25973;52.368;4.940;2022-10-26T01:01:34;12.80;99.90
40255;DHT22;25973;52.368;4.940;2022-10-26T01:04:00;12.90;99.90
40255;DHT22;25973;52.368;4.940;2022-10-26T01:06:28;12.90;99.90
40255;DHT22;25973;52.368;4.940;2022-10-26T01:08:54;12.90;99.90
40255;DHT22;25973;52.368;4.940;2022-10-26T01:11:20;12.90;99.90
40255;DHT22;25973;52.368;4.940;2022-10-26T01:13:47;12.90;99.90
40255;DHT22;25973;52.368;4.940;2022-10-26T01:16:36;12.90;99.90
40255;DHT22;25973;52.368;4.940;2022-10-26T01:21:57;12.90;99.90
40255;DHT22;25973;52.368;4.940;2022-10-26T01:24:55;12.90;99.90
40255;DHT22;25973;52.368;4.940;2022-10-26T01:27:43;12.90;99.90
40255;DHT22;25973;52.368;4.940;2022-10-26T01:35:40;12.90;99.90
40255;DHT22;25973;52.368;4.940;2022-10-26T01:38:16;12.90;99.90
40255;DHT22;25973;52.368;4.940;2022-10-26T01:40:51;12.90;99.90
40255;DHT22;25973;52.368;4.940;2022-10-26T01:43:18;12.80;99.90
40255;DHT22;25973;52.368;4.940;2022-10-26T01:45:46;12.80;99.90
40255;DHT22;25973;52.368;4.940;2022-10-26T01:48:15;12.80;99.90
40255;DHT22;25973;52.368;4.940;2022-10-26T01:50:45;12.80;99.90
40255;DHT22;25973;52.368;4.940;2022-10-26T01:53:15;12.80;99.90
40255;DHT22;25973;52.368;4.940;2022-10-26T01:55:51;12.80;99.90
40255;DHT22;25973;52.368;4.940;2022-10-26T02:03:57;12.90;99.90
40255;DHT22;25973;52.368;4.940;2022-10-26T02:09:28;12.80;99.90
40255;DHT22;25973;52.368;4.940;2022-10-26T02:12:02;12.80;99.90
40255;DHT22;25973;52.368;4.940;2022-10-26T02:14:50;12.90;99.90
40255;DHT22;25973;52.368;4.940;2022-10-26T02:17:47;12.90;99.90
40255;DHT22;25973;52.368;4.940;2022-10-26T02:20:24;12.90;99.90
40255;DHT22;25973;52.368;4.940;2022-10-26T02:22:54;12.90;99.90
40255;DHT22;25973;52.368;4.940;2022-10-26T02:25:26;12.90;99.90
40255;DHT22;25973;52.368;4.940;2022-10-26T02:27:56;12.80;99.90
40255;DHT22;25973;52.368;4.940;2022-10-26T02:30:23;12.90;99.90
40255;DHT22;25973;52.368;4.940;2022-10-26T02:32:51;12.80;99.90
40255;DHT22;25973;52.368;4.940;2022-10-26T02:35:21;12.80;99.90
40255;DHT22;25973;52.368;4.940;2022-10-26T02:37:48;12.70;99.90
40255;DHT22;25973;52.368;4.940;2022-10-26T02:40:19;12.70;99.90
40255;DHT22;25973;52.368;4.940;2022-10-26T02:42:45;12.70;99.90
40255;DHT22;25973;52.368;4.940;2022-10-26T02:45:16;12.70;99.90
40255;DHT22;25973;52.368;4.940;2022-10-26T02:47:43;12.70;99.90
40255;DHT22;25973;52.368;4.940;2022-10-26T02:50:09;12.70;99.90
40255;DHT22;25973;52.368;4.940;2022-10-26T02:55:21;12.70;99.90
40255;DHT22;25973;52.368;4.940;2022-10-26T02:57:51;12.80;99.90
40255;DHT22;25973;52.368;4.940;2022-10-26T03:00:18;12.80;99.90
40255;DHT22;25973;52.368;4.940;2022-10-26T03:02:45;12.80;99.90
40255;DHT22;25973;52.368;4.940;2022-10-26T03:05:19;12.80;99.90
40255;DHT22;25973;52.368;4.940;2022-10-26T03:07:48;12.80;99.90
40255;DHT22;25973;52.368;4.940;2022-10-26T03:10:14;12.80;99.90
40255;DHT22;25973;52.368;4.940;2022-10-26T03:12:39;12.80;99.90
40255;DHT22;25973;52.368;4.940;2022-10-26T03:15:05;12.80;99.90
40255;DHT22;25973;52.368;4.940;2022-10-26T03:17:31;12.80;99.90
40255;DHT22;25973;52.368;4.940;2022-10-26T03:19:56;12.80;99.90
40255;DHT22;25973;52.368;4.940;2022-10-26T03:22:22;12.90;99.90
40255;DHT22;25973;52.368;4.940;2022-10-26T03:24:48;12.80;99.90
40255;DHT22;25973;52.368;4.940;2022-10-26T03:27:14;12.80;99.90
40255;DHT22;25973;52.368;4.940;2022-10-26T03:29:39;12.80;99.90
40255;DHT22;25973;52.368;4.940;2022-10-26T03:32:05;12.80;99.90
40255;DHT22;25973;52.368;4.940;2022-10-26T03:34:31;12.90;99.90
40255;DHT22;25973;52.368;4.940;2022-10-26T03:36:57;12.90;99.90
40255;DHT22;25973;52.368;4.940;2022-10-26T03:39:22;12.90;99.90
40255;DHT22;25973;52.368;4.940;2022-10-26T03:41:48;13.00;99.90
40255;DHT22;25973;52.368;4.940;2022-10-26T03:44:14;13.00;99.90
40255;DHT22;25973;52.368;4.940;2022-10-26T03:46:39;13.00;99.90
40255;DHT22;25973;52.368;4.940;2022-10-26T03:49:05;13.10;99.90
40255;DHT22;25973;52.368;4.940;2022-10-26T03:51:33;13.00;99.90
40255;DHT22;25973;52.368;4.940;2022-10-26T03:53:59;13.00;99.90
40255;DHT22;25973;52.368;4.940;2022-10-26T03:56:24;13.10;99.90
40255;DHT22;25973;52.368;4.940;2022-10-26T03:58:50;13.10;99.90
40255;DHT22;25973;52.368;4.940;2022-10-26T04:01:15;13.10;99.90
40255;DHT22;25973;52.368;4.940;2022-10-26T04:03:41;13.20;99.90
40255;DHT22;25973;52.368;4.940;2022-10-26T04:06:07;13.20;99.90
40255;DHT22;25973;52.368;4.940;2022-10-26T04:08:32;13.10;99.90
40255;DHT22;25973;52.368;4.940;2022-10-26T04:10:58;13.20;99.90
40255;DHT22;25973;52.368;4.940;2022-10-26T04:13:23;13.20;99.90
40255;DHT22;25973;52.368;4.940;2022-10-26T04:15:49;13.20;99.90
40255;DHT22;25973;52.368;4.940;2022-10-26T04:18:15;13.20;99.90
40255;DHT22;25973;52.368;4.940;2022-10-26T04:20:40;13.20;99.90
40255;DHT22;25973;52.368;4.940;2022-10-26T04:23:11;13.20;99.90
40255;DHT22;25973;52.368;4.940;2022-10-26T04:25:37;13.30;99.90
40255;DHT22;25973;52.368;4.940;2022-10-26T04:28:05;13.20;99.90
40255;DHT22;25973;52.368;4.940;2022-10-26T04:30:32;13.30;99.90
40255;DHT22;25973;52.368;4.940;2022-10-26T04:32:58;13.30;99.90
40255;DHT22;25973;52.368;4.940;2022-10-26T04:35:24;13.40;99.90
40255;DHT22;25973;52.368;4.940;2022-10-26T04:37:49;13.40;99.90
40255;DHT22;25973;52.368;4.940;2022-10-26T04:40:15;13.40;99.90
40255;DHT22;25973;52.368;4.940;2022-10-26T04:42:44;13.40;99.90
40255;DHT22;25973;52.368;4.940;2022-10-26T04:45:12;13.50;99.90
40255;DHT22;25973;52.368;4.940;2022-10-26T04:47:41;13.40;99.90
40255;DHT22;25973;52.368;4.940;2022-10-26T04:50:08;13.40;99.90
40255;DHT22;25973;52.368;4.940;2022-10-26T04:52:37;13.50;99.90
40255;DHT22;25973;52.368;4.940;2022-10-26T04:55:03;13.50;99.90
40255;DHT22;25973;52.368;4.940;2022-10-26T04:57:34;13.50;99.90
40255;DHT22;25973;52.368;4.940;2022-10-26T05:00:00;13.50;99.90
40255;DHT22;25973;52.368;4.940;2022-10-26T05:02:27;13.50;99.90
40255;DHT22;25973;52.368;4.940;2022-10-26T05:04:53;13.50;99.90
40255;DHT22;25973;52.368;4.940;2022-10-26T05:07:19;13.60;99.90
40255;DHT22;25973;52.368;4.940;2022-10-26T05:09:45;13.60;99.90
40255;DHT22;25973;52.368;4.940;2022-10-26T05:12:10;13.60;99.90
40255;DHT22;25973;52.368;4.940;2022-10-26T05:14:36;13.60;99.90
40255;DHT22;25973;52.368;4.940;2022-10-26T05:17:02;13.60;99.90
40255;DHT22;25973;52.368;4.940;2022-10-26T05:19:28;13.60;99.90
40255;DHT22;25973;52.368;4.940;2022-10-26T05:21:53;13.60;99.90
40255;DHT22;25973;52.368;4.940;2022-10-26T05:24:19;13.70;99.90
40255;DHT22;25973;52.368;4.940;2022-10-26T05:26:45;13.70;99.90
40255;DHT22;25973;52.368;4.940;2022-10-26T05:29:10;13.70;99.90
40255;DHT22;25973;52.368;4.940;2022-10-26T05:31:36;13.70;99.90
40255;DHT22;25973;52.368;4.940;2022-10-26T05:34:01;13.70;99.90
40255;DHT22;25973;52.368;4.940;2022-10-26T05:36:27;13.70;99.90
40255;DHT22;25973;52.368;4.940;2022-10-26T05:38:56;13.80;99.90
40255;DHT22;25973;52.368;4.940;2022-10-26T05:41:21;13.80;99.90
40255;DHT22;25973;52.368;4.940;2022-10-26T05:43:47;13.80;99.90
40255;DHT22;25973;52.368;4.940;2022-10-26T05:46:15;13.80;99.90
40255;DHT22;25973;52.368;4.940;2022-10-26T05:48:41;13.90;99.90
40255;DHT22;25973;52.368;4.940;2022-10-26T05:51:06;13.90;99.90
40255;DHT22;25973;52.368;4.940;2022-10-26T05:53:32;13.90;99.90
40255;DHT22;25973;52.368;4.940;2022-10-26T05:55:57;13.90;99.90
40255;DHT22;25973;52.368;4.940;2022-10-26T05:58:23;13.90;99.90
40255;DHT22;25973;52.368;4.940;2022-10-26T06:06:15;14.00;99.90
40255;DHT22;25973;52.368;4.940;2022-10-26T06:08:41;14.00;99.90
40255;DHT22;25973;52.368;4.940;2022-10-26T06:11:07;14.00;99.90
40255;DHT22;25973;52.368;4.940;2022-10-26T06:13:34;14.00;99.90
40255;DHT22;25973;52.368;4.940;2022-10-26T06:16:09;14.10;99.90
40255;DHT22;25973;52.368;4.940;2022-10-26T06:18:40;14.10;99.90
40255;DHT22;25973;52.368;4.940;2022-10-26T06:21:23;14.10;99.90
40255;DHT22;25973;52.368;4.940;2022-10-26T06:24:01;14.10;99.90
40255;DHT22;25973;52.368;4.940;2022-10-26T06:27:16;14.10;99.90
40255;DHT22;25973;52.368;4.940;2022-10-26T06:29:21;14.10;99.90
40255;DHT22;25973;52.368;4.940;2022-10-26T06:31:49;14.00;99.90
40255;DHT22;25973;52.368;4.940;2022-10-26T06:34:22;14.00;99.90
40255;DHT22;25973;52.368;4.940;2022-10-26T06:36:49;14.00;99.90
40255;DHT22;25973;52.368;4.940;2022-10-26T06:39:15;14.00;99.90
40255;DHT22;25973;52.368;4.940;2022-10-26T06:41:42;14.00;99.90
40255;DHT22;25973;52.368;4.940;2022-10-26T06:44:14;14.00;99.90
40255;DHT22;25973;52.368;4.940;2022-10-26T06:47:06;14.00;99.90
40255;DHT22;25973;52.368;4.940;2022-10-26T06:49:36;14.00;99.90
40255;DHT22;25973;52.368;4.940;2022-10-26T06:57:14;14.00;99.90
40255;DHT22;25973;52.368;4.940;2022-10-26T07:02:15;14.00;99.90
40255;DHT22;25973;52.368;4.940;2022-10-26T07:04:41;14.00;99.90
40255;DHT22;25973;52.368;4.940;2022-10-26T07:07:22;14.10;99.90
40255;DHT22;25973;52.368;4.940;2022-10-26T07:09:49;14.10;99.90
40255;DHT22;25973;52.368;4.940;2022-10-26T07:12:15;14.10;99.90
40255;DHT22;25973;52.368;4.940;2022-10-26T07:14:40;14.00;99.90
40255;DHT22;25973;52.368;4.940;2022-10-26T07:17:07;14.10;99.90
40255;DHT22;25973;52.368;4.940;2022-10-26T07:19:38;14.10;99.90
40255;DHT22;25973;52.368;4.940;2022-10-26T07:22:09;14.10;99.90
40255;DHT22;25973;52.368;4.940;2022-10-26T07:24:35;14.20;99.90
40255;DHT22;25973;52.368;4.940;2022-10-26T07:27:03;14.20;99.90
40255;DHT22;25973;52.368;4.940;2022-10-26T07:29:29;14.30;99.90
40255;DHT22;25973;52.368;4.940;2022-10-26T07:31:55;14.40;99.90
40255;DHT22;25973;52.368;4.940;2022-10-26T07:34:20;14.40;99.90
40255;DHT22;25973;52.368;4.940;2022-10-26T07:36:46;14.40;99.90
40255;DHT22;25973;52.368;4.940;2022-10-26T07:39:12;14.50;99.90
40255;DHT22;25973;52.368;4.940;2022-10-26T07:41:37;14.60;99.90
40255;DHT22;25973;52.368;4.940;2022-10-26T07:44:03;14.70;99.90
40255;DHT22;25973;52.368;4.940;2022-10-26T07:46:28;14.80;99.90
40255;DHT22;25973;52.368;4.940;2022-10-26T07:48:54;15.00;99.90
40255;DHT22;25973;52.368;4.940;2022-10-26T07:51:19;15.10;99.90
40255;DHT22;25973;52.368;4.940;2022-10-26T07:53:45;15.30;99.90
40255;DHT22;25973;52.368;4.940;2022-10-26T07:56:12;15.50;99.90
40255;DHT22;25973;52.368;4.940;2022-10-26T07:58:38;15.60;99.90
40255;DHT22;25973;52.368;4.940;2022-10-26T08:01:12;15.70;99.90
40255;DHT22;25973;52.368;4.940;2022-10-26T08:03:41;15.80;99.90
40255;DHT22;25973;52.368;4.940;2022-10-26T08:06:07;15.90;99.90
40255;DHT22;25973;52.368;4.940;2022-10-26T08:08:33;15.90;99.90
40255;DHT22;25973;52.368;4.940;2022-10-26T08:10:59;15.90;99.90
40255;DHT22;25973;52.368;4.940;2022-10-26T08:13:25;16.00;99.90
40255;DHT22;25973;52.368;4.940;2022-10-26T08:16:02;16.10;99.90
40255;DHT22;25973;52.368;4.940;2022-10-26T08:18:28;16.30;99.90
40255;DHT22;25973;52.368;4.940;2022-10-26T08:20:54;16.60;99.90
40255;DHT22;25973;52.368;4.940;2022-10-26T08:23:20;16.70;99.90
40255;DHT22;25973;52.368;4.940;2022-10-26T08:25:46;16.90;99.90
40255;DHT22;25973;52.368;4.940;2022-10-26T08:28:12;17.00;99.90
40255;DHT22;25973;52.368;4.940;2022-10-26T08:30:37;17.00;99.90
40255;DHT22;25973;52.368;4.940;2022-10-26T08:33:05;17.10;99.90
40255;DHT22;25973;52.368;4.940;2022-10-26T08:35:34;17.30;99.90
40255;DHT22;25973;52.368;4.940;2022-10-26T08:37:59;17.40;99.90
40255;DHT22;25973;52.368;4.940;2022-10-26T08:40:33;17.40;99.90
40255;DHT22;25973;52.368;4.940;2022-10-26T08:43:04;17.50;99.90
40255;DHT22;25973;52.368;4.940;2022-10-26T08:45:54;17.70;99.90
40255;DHT22;25973;52.368;4.940;2022-10-26T08:48:28;17.90;99.90
40255;DHT22;25973;52.368;4.940;2022-10-26T08:50:58;18.10;99.90
40255;DHT22;25973;52.368;4.940;2022-10-26T08:56:26;18.30;99.90
40255;DHT22;25973;52.368;4.940;2022-10-26T08:59:02;18.30;99.90
40255;DHT22;25973;52.368;4.940;2022-10-26T09:01:30;18.30;99.90
40255;DHT22;25973;52.368;4.940;2022-10-26T09:03:57;18.30;99.90
40255;DHT22;25973;52.368;4.940;2022-10-26T09:09:00;18.40;99.90
40255;DHT22;25973;52.368;4.940;2022-10-26T09:11:48;18.50;99.90
40255;DHT22;25973;52.368;4.940;2022-10-26T09:22:16;19.20;99.90
40255;DHT22;25973;52.368;4.940;2022-10-26T09:24:51;19.40;99.90
40255;DHT22;25973;52.368;4.940;2022-10-26T09:27:27;19.60;99.90
40255;DHT22;25973;52.368;4.940;2022-10-26T09:29:54;19.90;99.90
40255;DHT22;25973;52.368;4.940;2022-10-26T09:32:30;20.00;99.90
40255;DHT22;25973;52.368;4.940;2022-10-26T09:35:02;19.90;99.90
40255;DHT22;25973;52.368;4.940;2022-10-26T09:37:34;20.00;99.90
40255;DHT22;25973;52.368;4.940;2022-10-26T09:43:02;20.50;99.90
40255;DHT22;25973;52.368;4.940;2022-10-26T09:45:38;20.80;99.90
40255;DHT22;25973;52.368;4.940;2022-10-26T09:48:11;21.20;99.90
40255;DHT22;25973;52.368;4.940;2022-10-26T09:50:40;21.60;99.90
40255;DHT22;25973;52.368;4.940;2022-10-26T09:53:09;22.00;99.90
40255;DHT22;25973;52.368;4.940;2022-10-26T09:55:40;22.30;99.90
40255;DHT22;25973;52.368;4.940;2022-10-26T09:58:19;23.00;99.90
40255;DHT22;25973;52.368;4.940;2022-10-26T10:00:46;23.70;99.90
40255;DHT22;25973;52.368;4.940;2022-10-26T10:03:38;24.60;99.90
40255;DHT22;25973;52.368;4.940;2022-10-26T10:08:40;26.10;99.90
40255;DHT22;25973;52.368;4.940;2022-10-26T10:11:09;26.50;99.90
40255;DHT22;25973;52.368;4.940;2022-10-26T10:13:38;27.10;99.90
40255;DHT22;25973;52.368;4.940;2022-10-26T10:16:39;27.80;99.10
40255;DHT22;25973;52.368;4.940;2022-10-26T10:19:20;28.30;98.30
40255;DHT22;25973;52.368;4.940;2022-10-26T10:21:50;28.90;97.80
40255;DHT22;25973;52.368;4.940;2022-10-26T10:24:27;29.30;96.80
40255;DHT22;25973;52.368;4.940;2022-10-26T10:27:14;29.50;96.10
40255;DHT22;25973;52.368;4.940;2022-10-26T10:29:43;29.70;96.10
40255;DHT22;25973;52.368;4.940;2022-10-26T10:32:30;29.90;95.90
40255;DHT22;25973;52.368;4.940;2022-10-26T10:34:58;29.90;95.60
40255;DHT22;25973;52.368;4.940;2022-10-26T10:37:36;29.00;96.30
40255;DHT22;25973;52.368;4.940;2022-10-26T10:40:14;27.70;97.60
40255;DHT22;25973;52.368;4.940;2022-10-26T10:42:43;26.30;99.70
40255;DHT22;25973;52.368;4.940;2022-10-26T10:45:19;25.10;99.90
40255;DHT22;25973;52.368;4.940;2022-10-26T10:48:01;24.00;99.90
40255;DHT22;25973;52.368;4.940;2022-10-26T10:50:28;23.10;99.90
40255;DHT22;25973;52.368;4.940;2022-10-26T10:53:22;22.40;99.90
40255;DHT22;25973;52.368;4.940;2022-10-26T10:59:27;21.30;99.90
40255;DHT22;25973;52.368;4.940;2022-10-26T11:05:16;20.60;99.90
40255;DHT22;25973;52.368;4.940;2022-10-26T11:08:03;20.40;99.90
40255;DHT22;25973;52.368;4.940;2022-10-26T11:10:45;20.30;99.90
40255;DHT22;25973;52.368;4.940;2022-10-26T11:13:20;20.10;99.90
40255;DHT22;25973;52.368;4.940;2022-10-26T11:15:51;20.00;99.90
40255;DHT22;25973;52.368;4.940;2022-10-26T11:18:25;19.90;99.90
40255;DHT22;25973;52.368;4.940;2022-10-26T11:21:01;19.90;99.90
40255;DHT22;25973;52.368;4.940;2022-10-26T11:23:42;19.90;99.90
40255;DHT22;25973;52.368;4.940;2022-10-26T11:26:27;19.80;99.90
40255;DHT22;25973;52.368;4.940;2022-10-26T11:29:02;19.70;99.90
40255;DHT22;25973;52.368;4.940;2022-10-26T11:31:34;19.60;99.90
40255;DHT22;25973;52.368;4.940;2022-10-26T11:36:48;19.60;99.90
40255;DHT22;25973;52.368;4.940;2022-10-26T11:42:10;19.70;99.90
40255;DHT22;25973;52.368;4.940;2022-10-26T11:47:37;19.70;99.90
40255;DHT22;25973;52.368;4.940;2022-10-26T11:50:24;19.70;99.90
40255;DHT22;25973;52.368;4.940;2022-10-26T11:52:56;19.70;99.90
40255;DHT22;25973;52.368;4.940;2022-10-26T11:55:23;19.70;99.90
40255;DHT22;25973;52.368;4.940;2022-10-26T11:57:51;19.60;99.90
40255;DHT22;25973;52.368;4.940;2022-10-26T12:00:22;19.70;99.90
40255;DHT22;25973;52.368;4.940;2022-10-26T12:02:57;19.70;99.90
40255;DHT22;25973;52.368;4.940;2022-10-26T12:08:01;19.70;99.90
40255;DHT22;25973;52.368;4.940;2022-10-26T12:10:31;19.60;99.90
40255;DHT22;25973;52.368;4.940;2022-10-26T12:13:59;19.60;99.90
40255;DHT22;25973;52.368;4.940;2022-10-26T12:22:21;19.50;99.90
40255;DHT22;25973;52.368;4.940;2022-10-26T12:25:17;19.50;99.90
40255;DHT22;25973;52.368;4.940;2022-10-26T12:35:32;19.50;99.90
40255;DHT22;25973;52.368;4.940;2022-10-26T12:37:59;19.60;99.90
40255;DHT22;25973;52.368;4.940;2022-10-26T12:40:41;19.60;99.90
40255;DHT22;25973;52.368;4.940;2022-10-26T12:45:46;19.50;99.90
40255;DHT22;25973;52.368;4.940;2022-10-26T12:51:40;19.60;99.90
40255;DHT22;25973;52.368;4.940;2022-10-26T12:59:59;19.60;99.90
40255;DHT22;25973;52.368;4.940;2022-10-26T13:02:49;19.50;99.90
40255;DHT22;25973;52.368;4.940;2022-10-26T13:08:11;19.60;99.90
40255;DHT22;25973;52.368;4.940;2022-10-26T13:10:45;19.60;99.90
40255;DHT22;25973;52.368;4.940;2022-10-26T13:13:24;19.60;99.90
40255;DHT22;25973;52.368;4.940;2022-10-26T13:15:54;19.60;99.90
40255;DHT22;25973;52.368;4.940;2022-10-26T13:18:21;19.60;99.90
40255;DHT22;25973;52.368;4.940;2022-10-26T13:23:33;19.70;99.90
40255;DHT22;25973;52.368;4.940;2022-10-26T13:26:11;19.70;99.90
40255;DHT22;25973;52.368;4.940;2022-10-26T13:33:58;19.70;99.90
40255;DHT22;25973;52.368;4.940;2022-10-26T13:39:19;19.70;99.90
40255;DHT22;25973;52.368;4.940;2022-10-26T13:41:48;19.60;99.90
40255;DHT22;25973;52.368;4.940;2022-10-26T13:44:38;19.60;99.90
40255;DHT22;25973;52.368;4.940;2022-10-26T13:47:36;19.60;99.90
40255;DHT22;25973;52.368;4.940;2022-10-26T13:50:17;19.60;99.90
40255;DHT22;25973;52.368;4.940;2022-10-26T13:52:46;19.60;99.90
40255;DHT22;25973;52.368;4.940;2022-10-26T13:57:43;19.70;99.90
40255;DHT22;25973;52.368;4.940;2022-10-26T14:00:16;19.80;99.90
40255;DHT22;25973;52.368;4.940;2022-10-26T14:02:43;19.80;99.90
40255;DHT22;25973;52.368;4.940;2022-10-26T14:05:11;19.80;99.90
40255;DHT22;25973;52.368;4.940;2022-10-26T14:07:53;19.80;99.90
40255;DHT22;25973;52.368;4.940;2022-10-26T14:10:32;19.80;99.90
40255;DHT22;25973;52.368;4.940;2022-10-26T14:12:59;19.80;99.90
40255;DHT22;25973;52.368;4.940;2022-10-26T14:15:32;19.80;99.90
40255;DHT22;25973;52.368;4.940;2022-10-26T14:18:00;19.80;99.90
40255;DHT22;25973;52.368;4.940;2022-10-26T14:20:27;19.80;99.90
40255;DHT22;25973;52.368;4.940;2022-10-26T14:22:54;19.80;99.90
40255;DHT22;25973;52.368;4.940;2022-10-26T14:25:22;19.80;99.90
40255;DHT22;25973;52.368;4.940;2022-10-26T14:27:50;19.80;99.90
40255;DHT22;25973;52.368;4.940;2022-10-26T14:30:27;19.80;99.90
40255;DHT22;25973;52.368;4.940;2022-10-26T14:32:53;19.80;99.90
40255;DHT22;25973;52.368;4.940;2022-10-26T14:35:32;19.80;99.90
40255;DHT22;25973;52.368;4.940;2022-10-26T14:38:18;19.80;99.90
40255;DHT22;25973;52.368;4.940;2022-10-26T14:40:48;19.80;99.90
40255;DHT22;25973;52.368;4.940;2022-10-26T14:43:19;19.80;99.90
40255;DHT22;25973;52.368;4.940;2022-10-26T14:45:48;19.80;99.90
40255;DHT22;25973;52.368;4.940;2022-10-26T14:48:34;19.70;99.90
40255;DHT22;25973;52.368;4.940;2022-10-26T14:51:09;19.70;99.90
40255;DHT22;25973;52.368;4.940;2022-10-26T14:53:40;19.70;99.90
40255;DHT22;25973;52.368;4.940;2022-10-26T14:56:23;19.70;99.90
40255;DHT22;25973;52.368;4.940;2022-10-26T14:58:50;19.60;99.90
40255;DHT22;25973;52.368;4.940;2022-10-26T15:03:55;19.60;99.90
40255;DHT22;25973;52.368;4.940;2022-10-26T15:09:01;19.50;99.90
40255;DHT22;25973;52.368;4.940;2022-10-26T15:11:31;19.50;99.90
40255;DHT22;25973;52.368;4.940;2022-10-26T15:13:57;19.50;99.90
40255;DHT22;25973;52.368;4.940;2022-10-26T15:16:26;19.50;99.90
40255;DHT22;25973;52.368;4.940;2022-10-26T15:19:16;19.50;99.90
40255;DHT22;25973;52.368;4.940;2022-10-26T15:21:47;19.50;99.90
40255;DHT22;25973;52.368;4.940;2022-10-26T15:24:25;19.50;99.90
40255;DHT22;25973;52.368;4.940;2022-10-26T15:26:52;19.50;99.90
40255;DHT22;25973;52.368;4.940;2022-10-26T15:32:04;19.50;99.90
40255;DHT22;25973;52.368;4.940;2022-10-26T15:34:30;19.50;99.90
40255;DHT22;25973;52.368;4.940;2022-10-26T15:36:56;19.50;99.90
40255;DHT22;25973;52.368;4.940;2022-10-26T15:39:21;19.50;99.90
40255;DHT22;25973;52.368;4.940;2022-10-26T15:41:47;19.50;99.90
40255;DHT22;25973;52.368;4.940;2022-10-26T15:44:20;19.50;99.90
40255;DHT22;25973;52.368;4.940;2022-10-26T15:46:46;19.50;99.90
40255;DHT22;25973;52.368;4.940;2022-10-26T15:49:17;19.40;99.90
40255;DHT22;25973;52.368;4.940;2022-10-26T15:51:45;19.40;99.90
40255;DHT22;25973;52.368;4.940;2022-10-26T15:54:11;19.40;99.90
40255;DHT22;25973;52.368;4.940;2022-10-26T15:56:40;19.40;99.90
40255;DHT22;25973;52.368;4.940;2022-10-26T15:59:16;19.30;99.90
40255;DHT22;25973;52.368;4.940;2022-10-26T16:01:42;19.30;99.90
40255;DHT22;25973;52.368;4.940;2022-10-26T16:04:09;19.30;99.90
40255;DHT22;25973;52.368;4.940;2022-10-26T16:06:35;19.30;99.90
40255;DHT22;25973;52.368;4.940;2022-10-26T16:09:05;19.20;99.90
40255;DHT22;25973;52.368;4.940;2022-10-26T16:11:31;19.20;99.90
40255;DHT22;25973;52.368;4.940;2022-10-26T16:13:57;19.10;99.90
40255;DHT22;25973;52.368;4.940;2022-10-26T16:16:22;19.10;99.90
40255;DHT22;25973;52.368;4.940;2022-10-26T16:18:52;19.00;99.90
40255;DHT22;25973;52.368;4.940;2022-10-26T16:21:19;19.10;99.90
40255;DHT22;25973;52.368;4.940;2022-10-26T16:23:46;19.00;99.90
40255;DHT22;25973;52.368;4.940;2022-10-26T16:26:13;19.00;99.90
40255;DHT22;25973;52.368;4.940;2022-10-26T16:28:38;19.00;99.90
40255;DHT22;25973;52.368;4.940;2022-10-26T16:31:07;19.00;99.90
40255;DHT22;25973;52.368;4.940;2022-10-26T16:33:33;19.00;99.90
40255;DHT22;25973;52.368;4.940;2022-10-26T16:36:03;19.00;99.90
40255;DHT22;25973;52.368;4.940;2022-10-26T16:38:30;18.90;99.90
40255;DHT22;25973;52.368;4.940;2022-10-26T16:41:07;18.90;99.90
40255;DHT22;25973;52.368;4.940;2022-10-26T16:43:43;18.90;99.90
40255;DHT22;25973;52.368;4.940;2022-10-26T16:46:13;18.80;99.90
40255;DHT22;25973;52.368;4.940;2022-10-26T16:48:40;18.80;99.90
40255;DHT22;25973;52.368;4.940;2022-10-26T16:51:10;18.80;99.90
40255;DHT22;25973;52.368;4.940;2022-10-26T16:53:36;18.80;99.90
40255;DHT22;25973;52.368;4.940;2022-10-26T16:56:04;18.80;99.90
40255;DHT22;25973;52.368;4.940;2022-10-26T16:58:30;18.80;99.90
40255;DHT22;25973;52.368;4.940;2022-10-26T17:00:55;18.70;99.90
40255;DHT22;25973;52.368;4.940;2022-10-26T17:03:21;18.70;99.90
40255;DHT22;25973;52.368;4.940;2022-10-26T17:05:46;18.60;99.90
40255;DHT22;25973;52.368;4.940;2022-10-26T17:08:12;18.60;99.90
40255;DHT22;25973;52.368;4.940;2022-10-26T17:10:37;18.50;99.90
40255;DHT22;25973;52.368;4.940;2022-10-26T17:13:03;18.50;99.90
40255;DHT22;25973;52.368;4.940;2022-10-26T17:15:28;18.40;99.90
40255;DHT22;25973;52.368;4.940;2022-10-26T17:17:54;18.40;99.90
40255;DHT22;25973;52.368;4.940;2022-10-26T17:20:20;18.40;99.90
40255;DHT22;25973;52.368;4.940;2022-10-26T17:22:45;18.40;99.90
40255;DHT22;25973;52.368;4.940;2022-10-26T17:25:14;18.30;99.90
40255;DHT22;25973;52.368;4.940;2022-10-26T17:27:40;18.30;99.90
40255;DHT22;25973;52.368;4.940;2022-10-26T17:30:09;18.30;99.90
40255;DHT22;25973;52.368;4.940;2022-10-26T17:32:35;18.30;99.90
40255;DHT22;25973;52.368;4.940;2022-10-26T17:35:01;18.20;99.90
40255;DHT22;25973;52.368;4.940;2022-10-26T17:37:27;18.20;99.90
40255;DHT22;25973;52.368;4.940;2022-10-26T17:39:52;18.20;99.90
40255;DHT22;25973;52.368;4.940;2022-10-26T17:42:18;18.20;99.90
40255;DHT22;25973;52.368;4.940;2022-10-26T17:44:43;18.10;99.90
40255;DHT22;25973;52.368;4.940;2022-10-26T17:47:09;18.10;99.90
40255;DHT22;25973;52.368;4.940;2022-10-26T17:49:44;18.10;99.90